Time;durP1;ratioP1;P1;durP2;ratioP2;P2;SDS_P1;SDS_P2;PMS_P1;PMS_P2;Temp;Humidity;BMP_temperature;BMP_pressure;BME280_temperature;BME280_humidity;BME280_pressure;Samples;Min_cycle;Max_cycle;Signal;HPM_P1;HPM_P2
2022/04/14 00:00:20;;;;;;;23.20;20.70;;;12.50;12.50;;;12.44;56.85;101168.69;4823774;29;20444;-68
2022/04/14 00:02:48;;;;;;;24.97;19.93;;;12.50;13.20;;;12.32;57.09;101156.78;4824539;29;20465;-68
2022/04/14 00:05:19;;;;;;;22.73;20.30;;;12.40;14.00;;;12.32;57.22;101153.25;4823717;29;20450;-68
2022/04/14 00:07:47;;;;;;;22.40;19.30;;;12.40;14.90;;;12.28;56.64;101150.09;4822394;29;20409;-68
2022/04/14 00:10:17;;;;;;;21.43;19.33;;;12.40;14.20;;;12.24;56.56;101156.16;4821950;29;20465;-67
2022/04/14 00:12:48;;;;;;;19.47;17.47;;;12.30;13.80;;;12.09;57.56;101154.47;4822700;29;20442;-68
2022/04/14 00:15:17;;;;;;;19.97;17.97;;;12.20;15.70;;;11.99;57.74;101150.47;4822546;29;20437;-67
2022/04/14 00:17:45;;;;;;;22.30;17.97;;;12.10;16.00;;;11.91;57.54;101146.06;4822841;29;20489;-69
2022/04/14 00:20:14;;;;;;;23.50;19.27;;;12.00;16.00;;;11.86;57.43;101142.31;4822060;29;20445;-66
2022/04/14 00:22:44;;;;;;;20.10;18.00;;;12.00;16.60;;;11.82;57.48;101147.28;4823099;29;20473;-67
2022/04/14 00:25:13;;;;;;;19.50;16.00;;;11.90;16.60;;;11.84;57.47;101152.50;4822556;29;20430;-68
2022/04/14 00:27:42;;;;;;;18.30;16.47;;;11.90;16.90;;;12.02;56.86;101147.34;4821852;29;20449;-69
2022/04/14 00:30:12;;;;;;;20.97;16.33;;;12.00;16.70;;;12.05;56.42;101142.34;4821644;29;20518;-67
2022/04/14 00:32:41;;;;;;;20.43;18.23;;;12.10;15.60;;;11.99;56.56;101147.75;4822133;29;20441;-68
2022/04/14 00:35:09;;;;;;;19.83;17.57;;;12.00;15.60;;;11.94;56.58;101150.25;4821861;29;20970;-67
2022/04/14 00:37:39;;;;;;;19.80;17.33;;;12.00;15.40;;;11.86;56.78;101150.44;4821532;29;20572;-68
2022/04/14 00:40:13;;;;;;;19.47;17.47;;;12.00;15.70;;;11.77;57.46;101150.63;4821793;29;20851;-68
2022/04/14 00:42:41;;;;;;;22.50;18.97;;;11.90;17.90;;;11.74;57.92;101151.03;4822198;29;20573;-67
2022/04/14 00:45:10;;;;;;;20.87;16.37;;;11.80;19.20;;;11.85;57.58;101151.47;4822221;29;20422;-68
2022/04/14 00:47:40;;;;;;;16.30;14.57;;;11.80;18.80;;;12.01;56.80;101153.78;4821774;29;20412;-67
2022/04/14 00:50:09;;;;;;;18.73;16.90;;;11.90;17.60;;;12.14;56.28;101151.13;4821696;29;20454;-68
2022/04/14 00:52:45;;;;;;;20.70;14.43;;;12.00;17.30;;;12.20;55.70;101151.13;4821489;29;20430;-68
2022/04/14 00:55:16;;;;;;;18.17;16.27;;;12.10;15.90;;;12.16;55.98;101151.75;4851196;29;20975;-67
2022/04/14 00:57:45;;;;;;;17.13;15.10;;;12.10;16.30;;;12.04;56.18;101164.25;4821937;29;20892;-68
2022/04/14 01:00:15;;;;;;;19.70;16.53;;;12.10;16.00;;;11.90;56.70;101154.41;4821721;29;20456;-68
2022/04/14 01:02:45;;;;;;;19.43;17.50;;;12.00;16.50;;;11.76;57.58;101154.34;4822304;29;20474;-68
2022/04/14 01:05:15;;;;;;;24.53;16.80;;;11.90;18.30;;;11.64;58.76;101155.97;4822790;29;20487;-68
2022/04/14 01:07:45;;;;;;;21.47;19.23;;;11.80;21.90;;;11.54;58.94;101158.22;4822752;29;20426;-67
2022/04/14 01:10:17;;;;;;;20.70;17.80;;;11.70;22.90;;;11.49;59.26;101154.44;4823471;29;20514;-69
2022/04/14 01:12:46;;;;;;;19.50;16.87;;;11.60;25.00;;;11.44;59.28;101155.03;4823744;29;20432;-67
2022/04/14 01:15:16;;;;;;;22.50;18.80;;;11.50;25.80;;;11.46;59.35;101152.97;4822364;29;20457;-68
2022/04/14 01:17:45;;;;;;;18.80;16.90;;;11.50;26.80;;;11.48;59.10;101161.72;4822008;29;20804;-68
2022/04/14 01:20:14;;;;;;;20.10;17.97;;;11.50;26.60;;;11.51;58.85;101158.63;4821434;29;20447;-68
2022/04/14 01:22:55;;;;;;;17.30;15.60;;;11.50;26.10;;;11.56;58.79;101158.84;4821503;29;20477;-66
2022/04/14 01:25:27;;;;;;;21.57;16.30;;;11.50;26.80;;;11.61;58.32;101152.84;4821235;29;20434;-68
2022/04/14 01:27:56;;;;;;;19.60;17.50;;;11.60;25.40;;;11.63;58.17;101159.72;4821419;29;20880;-68
2022/04/14 01:30:26;;;;;;;18.27;16.57;;;11.60;24.90;;;11.66;58.19;101153.06;4821345;29;20853;-69
2022/04/14 01:32:54;;;;;;;19.30;17.30;;;11.60;25.00;;;11.71;59.49;101151.38;4821639;29;20924;-68
2022/04/14 01:35:25;;;;;;;19.50;17.53;;;11.70;29.90;;;11.70;59.32;101155.16;4821735;29;20944;-69
2022/04/14 01:37:53;;;;;;;24.40;18.40;;;11.70;29.90;;;11.69;58.77;101164.31;4821467;29;20454;-67
2022/04/14 01:40:22;;;;;;;20.03;17.87;;;11.60;29.00;;;11.81;58.71;101158.34;4821218;29;20487;-68
2022/04/14 01:42:53;;;;;;;19.07;17.03;;;11.70;29.00;;;12.24;57.58;101167.84;4821382;29;20458;-67
2022/04/14 01:45:22;;;;;;;20.00;16.93;;;12.00;27.10;;;12.19;56.64;101171.19;4821329;29;20498;-67
2022/04/14 01:47:51;;;;;;;19.63;17.53;;;12.10;22.90;;;12.06;57.45;101173.00;4822889;29;20466;-68
2022/04/14 01:50:20;;;;;;;23.33;18.60;;;12.10;23.80;;;11.85;58.56;101167.75;4824481;29;20461;-67
2022/04/14 01:52:49;;;;;;;21.83;19.53;;;11.90;26.60;;;11.70;59.36;101170.59;4824782;29;20429;-68
2022/04/14 01:55:18;;;;;;;22.33;17.67;;;11.80;28.90;;;11.53;59.36;101166.53;4825001;29;20964;-68
2022/04/14 01:57:47;;;;;;;21.77;19.53;;;11.60;29.90;;;11.40;60.00;101169.19;4823592;29;20471;-68
2022/04/14 02:00:18;;;;;;;25.10;18.40;;;11.50;33.00;;;11.31;60.47;101176.66;4824499;29;20804;-68
2022/04/14 02:02:47;;;;;;;24.43;19.57;;;11.40;34.90;;;11.22;60.92;101172.44;4824535;29;20533;-68
2022/04/14 02:05:16;;;;;;;23.70;19.40;;;11.30;39.50;;;11.19;61.11;101172.81;4824496;29;20863;-69
2022/04/14 02:07:46;;;;;;;20.73;18.53;;;11.30;41.90;;;11.09;61.41;101175.03;4825109;29;20430;-68
2022/04/14 02:10:15;;;;;;;24.33;20.30;;;11.20;43.10;;;11.07;61.56;101177.13;4823936;29;20472;-68
2022/04/14 02:12:45;;;;;;;21.50;18.77;;;11.10;45.50;;;11.06;62.08;101172.75;4824259;29;20780;-67
2022/04/14 02:15:14;;;;;;;28.70;18.73;;;11.20;50.50;;;11.00;62.00;101170.81;4824569;29;20457;-68
2022/04/14 02:17:45;;;;;;;19.97;17.97;;;11.10;51.50;;;10.97;62.24;101176.66;4824190;29;20521;-68
2022/04/14 02:20:14;;;;;;;25.10;20.70;;;11.10;53.60;;;10.88;62.18;101170.56;4824121;29;20462;-68
2022/04/14 02:22:44;;;;;;;23.73;18.90;;;11.00;54.50;;;10.89;62.80;101172.25;4823963;29;20470;-68
2022/04/14 02:25:13;;;;;;;20.30;18.10;;;11.00;57.60;;;10.86;63.05;101178.88;4824085;29;20984;-69
2022/04/14 02:27:42;;;;;;;25.43;20.90;;;11.00;59.40;;;11.46;61.29;101179.25;4824075;29;20491;-69
2022/04/14 02:30:12;;;;;;;21.87;19.67;;;11.20;58.90;;;11.40;60.88;101178.16;4823719;29;20476;-68
2022/04/14 02:32:41;;;;;;;23.63;18.73;;;11.30;51.70;;;11.48;60.87;101177.97;4823835;29;20425;-68
2022/04/14 02:35:12;;;;;;;23.80;20.30;;;11.40;52.00;;;11.62;60.64;101190.56;4824049;29;20495;-68
2022/04/14 02:37:40;;;;;;;23.20;19.77;;;11.50;51.50;;;11.56;60.42;101195.97;4823913;29;20434;-67
2022/04/14 02:40:11;;;;;;;22.30;17.70;;;11.50;48.40;;;11.65;59.72;101192.03;4823933;29;20469;-67
2022/04/14 02:42:40;;;;;;;23.47;20.90;;;11.60;44.20;;;11.69;59.96;101201.44;4823715;29;20522;-68
2022/04/14 02:45:10;;;;;;;24.47;19.33;;;11.50;44.50;;;11.61;59.76;101210.59;4823688;29;20525;-67
2022/04/14 02:47:39;;;;;;;24.77;21.20;;;11.60;42.80;;;11.64;59.72;101212.06;4824099;29;20438;-67
2022/04/14 02:50:10;;;;;;;21.50;19.20;;;11.60;42.60;;;11.63;59.32;101213.09;4823856;29;20456;-67
2022/04/14 02:52:40;;;;;;;23.17;18.77;;;11.60;40.20;;;11.59;59.05;101218.06;4823761;29;20434;-68
2022/04/14 02:55:10;;;;;;;19.67;16.80;;;11.60;37.60;;;11.55;59.23;101214.09;4823422;29;20991;-68
2022/04/14 02:57:39;;;;;;;24.23;19.40;;;11.50;37.40;;;11.61;58.73;101210.59;4823941;29;20434;-67
2022/04/14 03:00:10;;;;;;;22.17;19.27;;;11.50;36.40;;;11.55;58.62;101199.72;4822972;29;20458;-67
2022/04/14 03:02:40;;;;;;;18.73;16.80;;;11.50;35.60;;;11.42;58.97;101213.19;4824863;29;20462;-67
2022/04/14 03:05:12;;;;;;;24.13;19.17;;;11.40;35.80;;;11.45;59.00;101221.75;4825199;29;20426;-67
2022/04/14 03:07:41;;;;;;;22.87;18.53;;;11.40;36.00;;;11.42;58.94;101222.16;4825028;29;20418;-67
2022/04/14 03:10:10;;;;;;;21.10;18.07;;;11.40;35.50;;;11.48;58.74;101234.91;4824475;29;20548;-67
2022/04/14 03:12:44;;;;;;;21.90;18.17;;;11.40;35.20;;;11.50;58.79;101246.38;4824785;29;20409;-68
2022/04/14 03:15:13;;;;;;;21.90;18.00;;;11.40;34.80;;;11.58;58.32;101245.38;4823877;29;20489;-67
2022/04/14 03:17:42;;;;;;;21.60;17.10;;;11.40;33.70;;;11.43;58.78;101244.66;4823456;29;20409;-68
2022/04/14 03:20:13;;;;;;;25.47;17.20;;;11.40;34.00;;;11.50;58.73;101229.28;4823125;29;20472;-67
2022/04/14 03:22:42;;;;;;;18.87;16.67;;;11.40;34.60;;;11.49;59.43;101223.03;4823021;29;20473;-68
2022/04/14 03:25:13;;;;;;;17.50;15.27;;;11.40;38.00;;;11.51;59.97;101225.53;4823298;29;20490;-67
2022/04/14 03:27:43;;;;;;;18.00;15.23;;;11.40;41.00;;;11.50;60.38;101232.00;4823202;29;20418;-68
2022/04/14 03:30:12;;;;;;;18.60;14.27;;;11.30;45.50;;;11.38;60.98;101244.41;4831294;23;20510;-67
2022/04/14 03:32:43;;;;;;;18.10;14.60;;;11.30;48.60;;;11.27;61.55;101251.25;4812831;29;20415;-67
2022/04/14 03:35:15;;;;;;;22.07;15.47;;;11.20;52.60;;;11.16;62.17;101254.50;4805247;29;20443;-67
2022/04/14 03:37:44;;;;;;;17.27;15.60;;;11.10;57.00;;;11.10;62.61;101241.72;4805568;29;21043;-67
2022/04/14 03:40:14;;;;;;;16.53;14.70;;;11.10;61.10;;;11.13;62.92;101244.06;4805556;29;20445;-67
2022/04/14 03:42:43;;;;;;;14.30;12.90;;;11.00;67.00;;;11.09;63.23;101235.47;4805405;29;20463;-67
2022/04/14 03:45:12;;;;;;;18.10;16.20;;;11.00;72.10;;;11.14;63.51;101240.28;4805418;29;20423;-67
2022/04/14 03:47:41;;;;;;;16.53;14.77;;;11.00;78.60;;;11.18;63.57;101241.59;4805182;29;20446;-66
2022/04/14 03:50:10;;;;;;;16.87;15.07;;;11.00;82.90;;;11.19;63.78;101248.66;4805255;29;20451;-67
2022/04/14 03:52:40;;;;;;;18.20;13.30;;;11.10;84.50;;;11.08;64.44;101246.53;4805269;29;20412;-67
2022/04/14 03:55:10;;;;;;;14.60;12.63;;;11.00;89.90;;;11.14;64.46;101243.00;4805672;29;20839;-67
2022/04/14 03:57:39;;;;;;;16.40;14.70;;;11.00;90.90;;;11.11;64.65;101232.56;4805383;29;20441;-67
2022/04/14 04:00:10;;;;;;;19.67;13.70;;;11.00;92.40;;;11.20;64.61;101239.50;4804992;29;20459;-67
2022/04/14 04:02:39;;;;;;;16.87;14.60;;;11.10;93.10;;;11.14;64.99;101234.88;4803584;29;20445;-67
2022/04/14 04:05:09;;;;;;;14.17;12.77;;;11.10;93.80;;;11.28;64.67;101236.66;4805190;29;20428;-66
2022/04/14 04:07:39;;;;;;;18.50;13.83;;;11.20;93.70;;;11.18;65.13;101236.19;4804767;29;20439;-68
2022/04/14 04:10:09;;;;;;;14.23;12.63;;;11.10;94.80;;;11.22;65.17;101243.72;4804701;29;20451;-67
2022/04/14 04:12:38;;;;;;;14.03;12.63;;;11.10;95.60;;;11.27;65.35;101245.84;4804322;29;20435;-67
2022/04/14 04:15:10;;;;;;;14.27;12.80;;;11.10;96.50;;;11.16;65.78;101243.66;4804978;29;20435;-67
2022/04/14 04:17:40;;;;;;;15.67;14.00;;;11.10;97.30;;;11.21;65.81;101257.44;4805102;29;20439;-67
2022/04/14 04:20:10;;;;;;;16.05;13.00;;;11.10;98.30;;;11.25;65.75;101258.72;4804860;29;20463;-66
2022/04/14 04:22:41;;;;;;;13.80;11.70;;;11.10;98.70;;;11.17;66.09;101270.56;4804762;29;20262;-67
2022/04/14 04:25:10;;;;;;;15.40;12.57;;;11.10;99.00;;;11.19;66.10;101276.59;4804950;29;20431;-67
2022/04/14 04:27:40;;;;;;;15.60;12.80;;;11.10;99.30;;;11.18;66.12;101269.50;4804876;29;20435;-66
2022/04/14 04:30:10;;;;;;;14.17;12.90;;;11.10;99.00;;;11.06;66.63;101275.66;4804760;29;20485;-67
2022/04/14 04:32:39;;;;;;;16.07;13.07;;;11.00;99.80;;;11.15;66.51;101277.19;4804519;29;20937;-66
2022/04/14 04:35:09;;;;;;;15.70;13.33;;;11.00;99.90;;;11.10;66.64;101290.47;4804897;29;20522;-66
2022/04/14 04:37:41;;;;;;;15.40;13.73;;;11.00;99.90;;;11.09;66.74;101291.50;4804668;29;20499;-65
2022/04/14 04:40:11;;;;;;;13.97;12.03;;;11.00;99.90;;;11.16;66.25;101287.00;4804968;29;20462;-66
2022/04/14 04:42:40;;;;;;;21.10;13.77;;;11.00;99.90;;;11.14;66.62;101289.91;4804726;29;20503;-66
2022/04/14 04:45:09;;;;;;;14.60;11.63;;;11.10;99.90;;;11.34;66.12;101298.19;4804729;29;20419;-66
2022/04/14 04:47:38;;;;;;;17.47;12.60;;;11.20;99.90;;;11.40;66.06;101300.09;4804586;29;20504;-68
2022/04/14 04:50:08;;;;;;;17.20;13.13;;;11.20;99.90;;;11.47;65.84;101302.88;4804215;29;20799;-66
2022/04/14 04:52:37;;;;;;;16.40;12.80;;;11.30;99.50;;;11.66;65.28;101300.28;4805194;29;20439;-67
2022/04/14 04:55:10;;;;;;;20.97;14.33;;;11.40;98.20;;;11.82;64.61;101284.75;4804598;29;20441;-68
2022/04/14 04:57:38;;;;;;;15.23;12.47;;;11.60;96.30;;;11.96;64.21;101283.75;4804332;29;20439;-68
2022/04/14 05:00:10;;;;;;;17.93;12.63;;;11.60;95.50;;;11.96;64.16;101284.59;4804419;29;20534;-67
2022/04/14 05:02:39;;;;;;;20.47;13.30;;;11.70;94.30;;;11.90;64.57;101284.59;4804253;29;20410;-67
2022/04/14 05:05:09;;;;;;;14.30;12.80;;;11.70;94.40;;;11.91;64.64;101278.13;4804140;29;20573;-68
2022/04/14 05:07:38;;;;;;;16.90;12.83;;;11.70;94.40;;;11.97;64.22;101263.75;4804122;29;20449;-68
2022/04/14 05:10:10;;;;;;;14.20;12.70;;;11.80;93.70;;;12.17;63.68;101264.66;4804109;29;20490;-66
2022/04/14 05:12:38;;;;;;;20.03;12.63;;;11.90;92.60;;;12.06;64.00;101270.66;4804426;29;20431;-67
2022/04/14 05:15:09;;;;;;;15.80;12.30;;;11.90;91.50;;;12.20;63.64;101275.09;4804700;29;20478;-67
2022/04/14 05:17:38;;;;;;;18.73;13.17;;;12.00;91.60;;;12.20;63.76;101272.38;4804714;29;20617;-66
2022/04/14 05:20:08;;;;;;;13.37;11.97;;;12.00;91.70;;;12.15;63.82;101267.56;4804184;29;20431;-67
2022/04/14 05:22:37;;;;;;;14.63;12.83;;;12.00;91.40;;;12.14;63.95;101265.09;4805930;29;20472;-67
2022/04/14 05:25:08;;;;;;;13.77;12.40;;;12.00;92.00;;;12.17;64.11;101270.94;4807938;29;20470;-68
2022/04/14 05:27:39;;;;;;;15.47;13.30;;;12.00;92.40;;;12.28;63.75;101276.81;4807835;29;20814;-68
2022/04/14 05:30:09;;;;;;;17.37;11.97;;;12.10;91.90;;;12.34;63.63;101276.00;4807266;29;20562;-67
2022/04/14 05:32:39;;;;;;;12.93;11.53;;;12.10;91.90;;;12.29;63.79;101273.06;4807659;29;20987;-66
2022/04/14 05:35:10;;;;;;;12.73;11.40;;;12.10;91.70;;;12.46;63.39;101272.47;4807597;29;20592;-66
2022/04/14 05:37:39;;;;;;;15.50;12.33;;;12.20;90.90;;;12.49;63.19;101279.38;4807717;29;20427;-63
2022/04/14 05:40:10;;;;;;;16.20;12.47;;;12.30;89.30;;;12.66;62.87;101285.25;4807091;29;20553;-65
2022/04/14 05:42:42;;;;;;;14.10;12.80;;;12.40;86.10;;;12.78;62.53;101283.63;4807363;29;20488;-65
2022/04/14 05:45:11;;;;;;;12.00;10.73;;;12.50;84.20;;;12.73;62.59;101286.13;4807074;29;20486;-64
2022/04/14 05:47:40;;;;;;;18.07;13.63;;;12.50;82.50;;;12.90;62.24;101281.94;4807215;29;20452;-65
2022/04/14 05:50:09;;;;;;;12.60;11.47;;;12.60;81.10;;;12.97;61.77;101283.59;4806788;29;20459;-64
2022/04/14 05:52:38;;;;;;;17.43;12.70;;;12.70;76.40;;;13.04;61.62;101289.03;4807104;29;20401;-63
2022/04/14 05:55:10;;;;;;;16.40;12.00;;;12.80;74.60;;;13.13;61.47;101282.38;4806925;29;20489;-65
2022/04/14 05:57:38;;;;;;;15.53;14.07;;;12.80;73.60;;;13.12;61.67;101286.13;4807133;29;20491;-65
2022/04/14 06:00:10;;;;;;;15.67;12.57;;;12.90;71.10;;;13.14;61.55;101289.50;4805378;29;20478;-65
2022/04/14 06:02:39;;;;;;;21.13;12.50;;;12.90;72.60;;;13.29;61.06;101292.84;4807423;29;20421;-63
2022/04/14 06:05:10;;;;;;;19.27;13.07;;;13.00;69.10;;;13.15;61.55;101293.06;4807373;29;20474;-64
2022/04/14 06:07:38;;;;;;;16.77;12.50;;;13.10;65.60;;;12.93;62.12;101292.38;4808293;29;20435;-64
2022/04/14 06:10:09;;;;;;;14.50;11.43;;;13.00;66.40;;;13.12;61.83;101298.91;4807586;29;20440;-63
2022/04/14 06:12:38;;;;;;;26.33;13.03;;;13.00;68.90;;;13.24;61.30;101295.34;4807186;29;20779;-63
2022/04/14 06:15:08;;;;;;;18.17;16.10;;;13.00;67.60;;;13.19;61.46;101292.44;4805638;29;20509;-64
2022/04/14 06:17:37;;;;;;;14.77;13.33;;;13.00;66.20;;;13.41;61.19;101298.47;4806899;29;20431;-63
2022/04/14 06:20:08;;;;;;;61.13;54.57;;;13.10;65.90;;;13.51;60.69;101295.34;4806596;29;20441;-65
2022/04/14 06:22:39;;;;;;;17.83;13.70;;;13.20;63.20;;;13.49;60.89;101293.66;4806734;29;20413;-64
2022/04/14 06:25:13;;;;;;;32.07;28.07;;;13.20;63.30;;;13.63;60.75;101293.63;4806568;29;20486;-64
2022/04/14 06:27:43;;;;;;;73.47;64.53;;;13.30;62.60;;;13.67;60.39;101301.16;4806533;29;20431;-65
2022/04/14 06:30:15;;;;;;;17.50;15.33;;;13.30;61.80;;;13.77;60.33;101300.69;4806452;29;20449;-64
2022/04/14 06:32:55;;;;;;;16.57;14.87;;;13.40;59.50;;;13.73;60.35;101299.47;4806443;29;20415;-64
2022/04/14 06:35:24;;;;;;;18.70;14.73;;;13.50;59.00;;;14.00;59.97;101301.03;4805265;29;20432;-64
2022/04/14 06:37:54;;;;;;;30.60;27.70;;;13.60;56.90;;;14.06;59.81;101297.47;4805518;29;20450;-65
2022/04/14 06:40:24;;;;;;;13.93;11.33;;;13.70;55.80;;;14.15;59.50;101293.44;4806614;29;20635;-64
2022/04/14 06:43:03;;;;;;;20.93;18.77;;;13.80;53.30;;;14.08;59.48;101298.09;4806181;29;20409;-64
2022/04/14 06:45:33;;;;;;;18.60;13.37;;;13.90;50.70;;;14.23;59.14;101301.38;4806268;29;20479;-64
2022/04/14 06:48:03;;;;;;;13.30;11.63;;;13.90;50.60;;;14.62;58.07;101302.28;4806393;29;20419;-65
2022/04/14 06:50:31;;;;;;;19.30;11.13;;;14.20;48.30;;;14.46;58.57;101310.94;4806229;29;20466;-65
2022/04/14 06:53:00;;;;;;;18.63;11.83;;;14.30;45.70;;;14.54;58.30;101305.22;4806498;29;20640;-64
2022/04/14 06:55:32;;;;;;;14.70;12.10;;;14.30;44.10;;;14.63;58.19;101310.19;4806552;29;20438;-65
2022/04/14 06:58:02;;;;;;;13.27;11.90;;;14.40;42.60;;;14.75;57.82;101299.44;4805825;29;20459;-65
2022/04/14 07:00:31;;;;;;;15.40;12.87;;;14.40;41.90;;;14.71;57.91;101300.94;4805662;29;20969;-65
2022/04/14 07:03:00;;;;;;;14.07;11.77;;;14.60;40.50;;;14.79;57.80;101300.69;4805772;29;20439;-65
2022/04/14 07:05:30;;;;;;;13.67;12.33;;;14.60;39.70;;;14.86;57.57;101301.47;4805887;29;20437;-65
2022/04/14 07:07:59;;;;;;;12.13;11.03;;;14.60;39.30;;;14.83;57.86;101301.91;4805907;29;20834;-64
2022/04/14 07:10:28;;;;;;;11.20;10.03;;;14.60;39.10;;;14.85;58.02;101302.53;4805639;29;20450;-65
2022/04/14 07:12:58;;;;;;;15.77;11.30;;;14.60;40.10;;;15.33;56.97;101310.09;4805564;29;20439;-64
2022/04/14 07:15:27;;;;;;;14.53;10.80;;;14.80;39.80;;;15.65;56.01;101314.44;4805503;29;20413;-64
2022/04/14 07:17:56;;;;;;;11.17;9.90;;;15.20;35.50;;;15.91;55.15;101311.44;4805583;29;20490;-64
2022/04/14 07:20:29;;;;;;;12.97;11.70;;;15.40;32.20;;;15.64;55.73;101310.88;4805183;29;20539;-64
2022/04/14 07:22:59;;;;;;;15.90;12.63;;;15.40;30.20;;;15.71;55.53;101304.53;4805531;29;20874;-64
2022/04/14 07:25:31;;;;;;;17.17;11.60;;;15.50;29.50;;;15.79;55.65;101307.78;4805231;29;20478;-64
2022/04/14 07:28:02;;;;;;;12.73;11.60;;;15.50;29.50;;;15.92;55.50;101299.47;4805333;29;20435;-64
2022/04/14 07:30:32;;;;;;;12.93;11.33;;;15.60;29.20;;;16.07;55.28;101304.56;4805048;29;20441;-64
2022/04/14 07:33:01;;;;;;;12.57;10.50;;;15.70;28.70;;;16.19;54.79;101301.88;4805458;29;20435;-65
2022/04/14 07:35:32;;;;;;;17.50;12.63;;;15.80;27.90;;;16.21;55.13;101310.69;4805053;29;20467;-65
2022/04/14 07:38:01;;;;;;;16.10;11.20;;;15.80;27.80;;;16.02;55.16;101302.47;4805082;29;20933;-64
2022/04/14 07:40:30;;;;;;;12.10;10.80;;;15.80;27.30;;;16.03;55.46;101314.22;4804778;29;20473;-64
2022/04/14 07:43:01;;;;;;;10.93;9.80;;;15.90;27.40;;;16.04;55.59;101319.47;4805082;29;20394;-64
2022/04/14 07:45:31;;;;;;;11.63;10.00;;;16.00;26.90;;;16.69;54.42;101311.53;4805154;29;20478;-65
2022/04/14 07:48:00;;;;;;;11.93;10.77;;;16.20;27.00;;;17.49;52.66;101313.78;4805774;29;20503;-64
2022/04/14 07:50:28;;;;;;;17.67;10.90;;;16.70;24.90;;;17.35;52.75;101313.19;4805325;29;20436;-64
2022/04/14 07:53:03;;;;;;;13.83;10.50;;;16.90;22.90;;;16.83;54.36;101315.72;4805605;29;20517;-64
2022/04/14 07:55:35;;;;;;;15.90;11.07;;;16.70;23.60;;;17.17;53.69;101305.94;4805862;29;20439;-64
2022/04/14 07:58:07;;;;;;;11.60;9.87;;;16.80;23.80;;;17.42;53.01;101316.66;4805750;29;20456;-65
2022/04/14 08:00:39;;;;;;;10.60;8.13;;;17.00;23.20;;;17.16;53.82;101314.38;4805005;29;21136;-65
2022/04/14 08:03:09;;;;;;;10.43;8.70;;;17.00;22.70;;;16.97;54.68;101310.06;4805290;29;20410;-64
2022/04/14 08:05:39;;;;;;;11.77;9.47;;;16.80;23.60;;;16.85;54.90;101319.03;4805160;29;20497;-63
2022/04/14 08:08:11;;;;;;;9.10;8.20;;;16.70;24.20;;;16.55;55.97;101318.22;4804851;29;20443;-64
2022/04/14 08:10:41;;;;;;;10.60;8.57;;;16.60;25.20;;;16.70;55.83;101320.56;4804689;29;20478;-64
2022/04/14 08:13:12;;;;;;;13.77;7.97;;;16.50;26.30;;;17.01;55.29;101320.28;4805041;29;20843;-63
2022/04/14 08:15:42;;;;;;;8.13;7.40;;;16.60;26.40;;;17.26;54.62;101325.56;4833812;29;20976;-64
2022/04/14 08:18:12;;;;;;;9.03;8.13;;;16.80;26.50;;;17.33;54.42;101326.31;4804607;29;20476;-64
2022/04/14 08:20:41;;;;;;;10.17;7.80;;;17.00;25.00;;;17.37;54.63;101332.97;4804533;29;20425;-65
2022/04/14 08:23:13;;;;;;;11.47;8.27;;;17.10;24.90;;;17.52;54.12;101335.22;4804657;29;20445;-63
2022/04/14 08:25:43;;;;;;;11.40;10.30;;;17.20;24.20;;;17.33;54.56;101334.50;4804560;29;20456;-65
2022/04/14 08:28:34;;;;;;;9.53;8.73;;;17.10;24.50;;;17.38;54.77;101340.91;4804978;29;20530;-66
2022/04/14 08:31:04;;;;;;;8.43;6.37;;;17.10;24.60;;;17.35;54.76;101346.88;4833752;29;20850;-65
2022/04/14 08:33:33;;;;;;;8.93;6.20;;;17.20;24.30;;;17.11;55.36;101356.09;4804745;29;20410;-66
2022/04/14 08:36:03;;;;;;;14.87;10.87;;;17.10;24.30;;;17.21;55.15;101361.00;4804920;29;20406;-67
2022/04/14 08:38:32;;;;;;;11.17;7.13;;;17.00;25.10;;;16.76;56.30;101364.16;4804485;29;20431;-65
2022/04/14 08:41:04;;;;;;;11.37;7.60;;;16.70;25.90;;;17.03;55.79;101364.63;4804570;29;20489;-64
2022/04/14 08:43:50;;;;;;;11.97;7.33;;;16.80;26.60;;;17.23;54.97;101365.13;4804760;29;20903;-64
2022/04/14 08:46:21;;;;;;;9.20;7.13;;;17.00;25.40;;;17.19;55.24;101353.00;4804446;29;20457;-64
2022/04/14 08:48:51;;;;;;;10.40;8.33;;;17.00;25.10;;;17.10;55.03;101359.06;4804785;29;20880;-64
2022/04/14 08:51:22;;;;;;;8.77;7.97;;;17.10;24.60;;;17.28;55.04;101369.94;4804471;29;20437;-64
2022/04/14 08:53:51;;;;;;;7.60;6.13;;;17.10;25.00;;;17.56;54.28;101367.34;4804292;29;20458;-66
2022/04/14 08:56:25;;;;;;;8.77;6.77;;;17.30;24.10;;;17.28;54.76;101362.53;4804311;29;20937;-64
2022/04/14 08:58:57;;;;;;;8.07;6.50;;;17.30;23.30;;;17.72;54.05;101379.50;4804133;29;20442;-65
2022/04/14 09:01:28;;;;;;;12.57;7.20;;;17.40;23.20;;;17.78;53.81;101381.31;4804153;29;20927;-66
2022/04/14 09:03:59;;;;;;;7.77;7.07;;;17.50;22.40;;;17.74;53.97;101378.22;4804203;29;20773;-65
2022/04/14 09:06:30;;;;;;;7.83;7.00;;;17.60;22.10;;;17.94;53.39;101382.50;4803562;29;20474;-66
2022/04/14 09:09:00;;;;;;;11.30;7.77;;;17.70;21.80;;;17.74;53.66;101377.38;4803963;29;20435;-64
2022/04/14 09:11:31;;;;;;;8.33;6.90;;;17.70;21.20;;;17.80;53.95;101381.91;4804093;29;20446;-65
2022/04/14 09:14:02;;;;;;;9.83;5.77;;;17.60;21.80;;;17.86;53.82;101371.91;4803990;29;20421;-63
2022/04/14 09:16:33;;;;;;;6.20;4.37;;;17.70;22.00;;;17.75;54.30;101368.94;4803943;29;20401;-64
2022/04/14 09:19:04;;;;;;;5.80;3.47;;;17.60;22.30;;;17.94;53.84;101377.03;4803838;29;20418;-64
2022/04/14 09:21:34;;;;;;;6.67;3.60;;;17.70;22.10;;;17.64;54.52;101377.97;4804690;29;20935;-66
2022/04/14 09:24:05;;;;;;;3.40;2.00;;;17.60;22.30;;;17.50;55.10;101381.97;4805343;29;20409;-68
2022/04/14 09:26:35;;;;;;;11.33;3.20;;;17.30;23.30;;;17.41;55.43;101375.19;4804690;29;20481;-65
2022/04/14 09:29:10;;;;;;;3.73;2.80;;;17.30;23.90;;;17.47;55.28;101376.16;4804654;29;20421;-66
2022/04/14 09:31:49;;;;;;;3.30;2.87;;;17.40;23.80;;;17.10;56.01;101381.75;4824306;24;20587;-72
2022/04/14 09:34:41;;;;;;;4.07;2.50;;;17.20;24.20;;;16.84;57.02;101380.28;4816290;29;20413;-72
2022/04/14 09:37:11;;;;;;;7.60;3.00;;;16.90;25.70;;;17.17;56.37;101381.69;4820683;29;20434;-72
2022/04/14 09:40:00;;;;;;;3.60;2.73;;;17.00;26.70;;;16.89;57.18;101380.38;4820318;29;20446;-74
2022/04/14 09:42:32;;;;;;;4.30;2.30;;;16.80;27.40;;;16.70;57.52;101370.56;4818408;29;20429;-72
2022/04/14 09:45:21;;;;;;;4.87;3.40;;;16.60;28.10;;;16.58;58.06;101372.41;4821407;29;20435;-72
2022/04/14 09:48:10;;;;;;;10.03;4.10;;;16.50;29.80;;;16.75;57.90;101378.09;4820068;29;20763;-72
2022/04/14 09:50:43;;;;;;;5.83;4.37;;;16.50;31.40;;;16.57;58.22;101386.25;4819776;29;20470;-71
2022/04/14 09:53:15;;;;;;;6.23;4.73;;;16.50;31.00;;;16.44;58.64;101376.34;4821146;29;20445;-73
2022/04/14 09:55:57;;;;;;;10.20;5.20;;;16.40;32.90;;;16.66;58.36;101374.81;4821040;29;20438;-73
2022/04/14 09:58:27;;;;;;;12.87;6.53;;;16.40;33.80;;;16.88;57.93;101377.91;4821238;29;20481;-73
2022/04/14 10:01:00;;;;;;;8.67;7.80;;;16.50;34.60;;;16.74;57.99;101371.78;4821129;29;20460;-71
2022/04/14 10:03:31;;;;;;;8.80;7.90;;;16.60;33.10;;;16.70;58.02;101373.28;4821204;29;20438;-73
2022/04/14 10:06:06;;;;;;;8.60;7.77;;;16.60;32.90;;;16.50;58.60;101379.00;4821229;29;20943;-73
2022/04/14 10:08:51;;;;;;;8.17;7.40;;;16.50;34.10;;;16.39;59.09;101373.47;4819504;29;20445;-72
2022/04/14 10:11:27;;;;;;;7.27;6.57;;;16.40;35.20;;;16.22;59.63;101377.84;4824164;29;20446;-73
2022/04/14 10:14:11;;;;;;;6.87;6.17;;;16.10;38.30;;;16.74;58.67;101374.53;4824139;29;20419;-73
2022/04/14 10:16:42;;;;;;;7.27;6.47;;;16.40;39.90;;;16.95;58.07;101379.47;4824323;29;20433;-72